sensor_id;sensor_type;location;lat;lon;timestamp;pressure;altitude;pressure_sealevel;temperature;humidity
4469;BME280;2247;42.666;23.292;2024-01-25T00:02:26;94910.22;;;8.92;50.38
4469;BME280;2247;42.666;23.292;2024-01-25T00:04:53;94919.09;;;8.86;50.69
4469;BME280;2247;42.666;23.292;2024-01-25T00:07:20;94905.97;;;8.86;50.84
4469;BME280;2247;42.666;23.292;2024-01-25T00:09:48;94900.69;;;8.86;50.80
4469;BME280;2247;42.666;23.292;2024-01-25T00:12:15;94883.34;;;8.85;50.82
4469;BME280;2247;42.666;23.292;2024-01-25T00:14:42;94883.66;;;8.89;50.64
4469;BME280;2247;42.666;23.292;2024-01-25T00:17:09;94870.56;;;8.94;50.65
4469;BME280;2247;42.666;23.292;2024-01-25T00:19:36;94853.00;;;8.99;50.41
4469;BME280;2247;42.666;23.292;2024-01-25T00:22:03;94835.91;;;8.97;50.95
4469;BME280;2247;42.666;23.292;2024-01-25T00:24:30;94817.34;;;8.77;51.23
4469;BME280;2247;42.666;23.292;2024-01-25T00:26:58;94790.75;;;8.73;51.86
4469;BME280;2247;42.666;23.292;2024-01-25T00:29:25;94780.69;;;8.65;51.34
4469;BME280;2247;42.666;23.292;2024-01-25T00:31:52;94804.25;;;8.55;51.38
4469;BME280;2247;42.666;23.292;2024-01-25T00:34:19;94808.34;;;8.46;51.97
4469;BME280;2247;42.666;23.292;2024-01-25T00:36:47;94801.84;;;8.53;51.88
4469;BME280;2247;42.666;23.292;2024-01-25T00:39:14;94804.25;;;8.55;51.61
4469;BME280;2247;42.666;23.292;2024-01-25T00:41:44;94810.03;;;8.57;51.24
4469;BME280;2247;42.666;23.292;2024-01-25T00:44:15;94815.50;;;8.50;51.96
4469;BME280;2247;42.666;23.292;2024-01-25T00:46:42;94812.31;;;8.48;52.27
4469;BME280;2247;42.666;23.292;2024-01-25T00:49:12;94802.59;;;8.49;51.75
4469;BME280;2247;42.666;23.292;2024-01-25T00:51:44;94798.19;;;8.54;52.04
4469;BME280;2247;42.666;23.292;2024-01-25T00:54:14;94781.44;;;8.60;51.78
4469;BME280;2247;42.666;23.292;2024-01-25T00:56:41;94791.47;;;8.63;51.89
4469;BME280;2247;42.666;23.292;2024-01-25T00:59:09;94792.59;;;8.73;51.68
4469;BME280;2247;42.666;23.292;2024-01-25T01:01:38;94798.66;;;8.78;51.60
4469;BME280;2247;42.666;23.292;2024-01-25T01:04:08;94790.63;;;8.85;51.15
4469;BME280;2247;42.666;23.292;2024-01-25T01:06:35;94804.59;;;8.90;50.72
4469;BME280;2247;42.666;23.292;2024-01-25T01:09:02;94810.34;;;8.92;50.77
4469;BME280;2247;42.666;23.292;2024-01-25T01:11:30;94810.06;;;8.89;50.61
4469;BME280;2247;42.666;23.292;2024-01-25T01:13:57;94798.97;;;8.82;50.58
4469;BME280;2247;42.666;23.292;2024-01-25T01:16:24;94807.69;;;8.87;50.73
4469;BME280;2247;42.666;23.292;2024-01-25T01:18:52;94792.47;;;8.89;50.26
4469;BME280;2247;42.666;23.292;2024-01-25T01:21:19;94789.84;;;8.89;50.52
4469;BME280;2247;42.666;23.292;2024-01-25T01:23:47;94757.78;;;8.87;50.45
4469;BME280;2247;42.666;23.292;2024-01-25T01:26:13;94751.22;;;8.90;50.38
4469;BME280;2247;42.666;23.292;2024-01-25T01:28:40;94735.75;;;8.93;50.84
4469;BME280;2247;42.666;23.292;2024-01-25T01:31:07;94735.50;;;8.95;50.90
4469;BME280;2247;42.666;23.292;2024-01-25T01:33:34;94755.22;;;8.97;51.35
4469;BME280;2247;42.666;23.292;2024-01-25T01:36:03;94742.13;;;9.02;51.24
4469;BME280;2247;42.666;23.292;2024-01-25T01:38:30;94745.81;;;9.06;50.85
4469;BME280;2247;42.666;23.292;2024-01-25T01:40:57;94730.91;;;9.12;50.89
4469;BME280;2247;42.666;23.292;2024-01-25T01:43:24;94723.84;;;9.18;50.31
4469;BME280;2247;42.666;23.292;2024-01-25T01:45:50;94725.44;;;9.19;50.46
4469;BME280;2247;42.666;23.292;2024-01-25T01:48:17;94714.63;;;9.20;50.39
4469;BME280;2247;42.666;23.292;2024-01-25T01:50:44;94710.22;;;9.26;51.21
4469;BME280;2247;42.666;23.292;2024-01-25T01:53:13;94707.09;;;9.34;51.60
4469;BME280;2247;42.666;23.292;2024-01-25T01:55:41;94725.03;;;9.42;52.23
4469;BME280;2247;42.666;23.292;2024-01-25T01:58:08;94705.09;;;9.51;52.60
4469;BME280;2247;42.666;23.292;2024-01-25T02:00:36;94712.25;;;9.61;52.42
4469;BME280;2247;42.666;23.292;2024-01-25T02:03:04;94706.75;;;9.72;52.05
4469;BME280;2247;42.666;23.292;2024-01-25T02:05:31;94703.38;;;9.82;51.74
4469;BME280;2247;42.666;23.292;2024-01-25T02:07:58;94691.84;;;9.93;51.33
4469;BME280;2247;42.666;23.292;2024-01-25T02:10:26;94696.59;;;10.01;51.13
4469;BME280;2247;42.666;23.292;2024-01-25T02:12:53;94690.56;;;10.11;51.11
4469;BME280;2247;42.666;23.292;2024-01-25T02:15:20;94696.94;;;10.25;51.26
4469;BME280;2247;42.666;23.292;2024-01-25T02:17:47;94695.91;;;10.31;50.92
4469;BME280;2247;42.666;23.292;2024-01-25T02:20:17;94698.81;;;10.40;50.68
4469;BME280;2247;42.666;23.292;2024-01-25T02:22:46;94702.53;;;10.49;50.66
4469;BME280;2247;42.666;23.292;2024-01-25T02:25:13;94699.09;;;10.53;50.19
4469;BME280;2247;42.666;23.292;2024-01-25T02:27:40;94705.44;;;10.62;50.11
4469;BME280;2247;42.666;23.292;2024-01-25T02:30:07;94695.94;;;10.66;50.22
4469;BME280;2247;42.666;23.292;2024-01-25T02:32:35;94704.91;;;10.55;49.85
4469;BME280;2247;42.666;23.292;2024-01-25T02:35:02;94702.53;;;10.49;49.73
4469;BME280;2247;42.666;23.292;2024-01-25T02:37:29;94695.91;;;10.51;50.14
4469;BME280;2247;42.666;23.292;2024-01-25T02:39:57;94690.69;;;10.56;49.89
4469;BME280;2247;42.666;23.292;2024-01-25T02:42:24;94695.94;;;10.61;50.11
4469;BME280;2247;42.666;23.292;2024-01-25T02:44:51;94675.91;;;10.60;49.44
4469;BME280;2247;42.666;23.292;2024-01-25T02:47:18;94683.53;;;10.52;50.11
4469;BME280;2247;42.666;23.292;2024-01-25T02:49:45;94687.25;;;10.56;50.20
4469;BME280;2247;42.666;23.292;2024-01-25T02:52:12;94669.84;;;10.55;49.67
4469;BME280;2247;42.666;23.292;2024-01-25T02:54:38;94670.63;;;10.45;49.81
4469;BME280;2247;42.666;23.292;2024-01-25T02:57:07;94688.81;;;10.42;49.72
4469;BME280;2247;42.666;23.292;2024-01-25T02:59:34;94686.72;;;10.44;49.56
4469;BME280;2247;42.666;23.292;2024-01-25T03:02:01;94680.66;;;10.43;50.13
4469;BME280;2247;42.666;23.292;2024-01-25T03:04:28;94686.44;;;10.45;51.27
4469;BME280;2247;42.666;23.292;2024-01-25T03:06:54;94694.09;;;10.47;51.85
4469;BME280;2247;42.666;23.292;2024-01-25T03:09:21;94677.75;;;10.50;52.38
4469;BME280;2247;42.666;23.292;2024-01-25T03:11:49;94666.94;;;10.31;52.65
4469;BME280;2247;42.666;23.292;2024-01-25T03:14:17;94680.41;;;10.55;52.84
4469;BME280;2247;42.666;23.292;2024-01-25T03:16:44;94669.31;;;10.58;52.75
4469;BME280;2247;42.666;23.292;2024-01-25T03:19:12;94677.22;;;10.73;52.88
4469;BME280;2247;42.666;23.292;2024-01-25T03:21:39;94695.16;;;10.71;52.85
4469;BME280;2247;42.666;23.292;2024-01-25T03:24:06;94679.63;;;10.70;52.83
4469;BME280;2247;42.666;23.292;2024-01-25T03:26:33;94675.91;;;10.76;53.18
4469;BME280;2247;42.666;23.292;2024-01-25T03:29:00;94672.22;;;10.77;53.40
4469;BME280;2247;42.666;23.292;2024-01-25T03:31:28;94661.41;;;10.73;53.70
4469;BME280;2247;42.666;23.292;2024-01-25T03:33:55;94667.47;;;10.69;53.88
4469;BME280;2247;42.666;23.292;2024-01-25T03:36:22;94669.06;;;10.75;53.58
4469;BME280;2247;42.666;23.292;2024-01-25T03:38:49;94657.22;;;10.77;53.44
4469;BME280;2247;42.666;23.292;2024-01-25T03:41:16;94653.78;;;10.82;52.92
4469;BME280;2247;42.666;23.292;2024-01-25T03:43:43;94633.72;;;10.81;52.77
4469;BME280;2247;42.666;23.292;2024-01-25T03:46:10;94627.16;;;10.83;52.35
4469;BME280;2247;42.666;23.292;2024-01-25T03:48:39;94635.84;;;10.84;52.16
4469;BME280;2247;42.666;23.292;2024-01-25T03:51:05;94647.69;;;10.86;51.65
4469;BME280;2247;42.666;23.292;2024-01-25T03:53:32;94642.94;;;10.88;51.80
4469;BME280;2247;42.666;23.292;2024-01-25T03:55:59;94631.34;;;10.94;51.52
4469;BME280;2247;42.666;23.292;2024-01-25T03:58:26;94622.09;;;11.02;50.97
4469;BME280;2247;42.666;23.292;2024-01-25T04:00:53;94610.47;;;11.08;50.90
4469;BME280;2247;42.666;23.292;2024-01-25T04:03:20;94612.31;;;11.07;50.81
4469;BME280;2247;42.666;23.292;2024-01-25T04:05:49;94609.69;;;11.07;50.72
4469;BME280;2247;42.666;23.292;2024-01-25T04:08:15;94610.47;;;11.08;50.74
4469;BME280;2247;42.666;23.292;2024-01-25T04:10:42;94612.09;;;11.04;50.59
4469;BME280;2247;42.666;23.292;2024-01-25T04:13:09;94578.66;;;10.84;50.63
4469;BME280;2247;42.666;23.292;2024-01-25T04:15:36;94609.69;;;11.13;50.54
4469;BME280;2247;42.666;23.292;2024-01-25T04:18:03;94612.03;;;11.14;50.77
4469;BME280;2247;42.666;23.292;2024-01-25T04:20:30;94618.63;;;11.17;50.47
4469;BME280;2247;42.666;23.292;2024-01-25T04:23:01;94614.41;;;11.21;50.15
4469;BME280;2247;42.666;23.292;2024-01-25T04:25:28;94611.75;;;11.26;50.22
4469;BME280;2247;42.666;23.292;2024-01-25T04:27:55;94598.84;;;11.24;49.77
4469;BME280;2247;42.666;23.292;2024-01-25T04:30:22;94603.06;;;11.25;49.90
4469;BME280;2247;42.666;23.292;2024-01-25T04:32:49;94604.38;;;11.23;49.48
4469;BME280;2247;42.666;23.292;2024-01-25T04:35:16;94604.91;;;11.25;49.15
4469;BME280;2247;42.666;23.292;2024-01-25T04:37:42;94615.97;;;11.22;48.88
4469;BME280;2247;42.666;23.292;2024-01-25T04:40:11;94618.38;;;11.18;49.04
4469;BME280;2247;42.666;23.292;2024-01-25T04:42:38;94619.41;;;11.22;49.06
4469;BME280;2247;42.666;23.292;2024-01-25T04:45:06;94643.69;;;11.19;48.40
4469;BME280;2247;42.666;23.292;2024-01-25T04:47:33;94646.03;;;11.21;48.71
4469;BME280;2247;42.666;23.292;2024-01-25T04:50:00;94651.31;;;11.21;48.95
4469;BME280;2247;42.666;23.292;2024-01-25T04:52:27;94653.47;;;11.19;48.54
4469;BME280;2247;42.666;23.292;2024-01-25T04:54:54;94659.50;;;11.24;48.39
4469;BME280;2247;42.666;23.292;2024-01-25T04:57:22;94656.59;;;11.21;48.15
4469;BME280;2247;42.666;23.292;2024-01-25T04:59:49;94670.84;;;11.15;48.36
4469;BME280;2247;42.666;23.292;2024-01-25T05:02:16;94637.16;;;10.91;47.98
4469;BME280;2247;42.666;23.292;2024-01-25T05:04:43;94669.31;;;11.03;48.29
4469;BME280;2247;42.666;23.292;2024-01-25T05:07:10;94676.16;;;10.94;48.11
4469;BME280;2247;42.666;23.292;2024-01-25T05:09:37;94672.22;;;10.87;48.25
4469;BME280;2247;42.666;23.292;2024-01-25T05:12:04;94671.19;;;10.78;47.78
4469;BME280;2247;42.666;23.292;2024-01-25T05:14:33;94675.91;;;10.76;47.85
4469;BME280;2247;42.666;23.292;2024-01-25T05:17:00;94707.56;;;10.71;47.58
4469;BME280;2247;42.666;23.292;2024-01-25T05:19:27;94690.94;;;10.60;47.92
4469;BME280;2247;42.666;23.292;2024-01-25T05:21:54;94703.84;;;10.66;47.77
4469;BME280;2247;42.666;23.292;2024-01-25T05:24:21;94707.00;;;10.74;47.72
4469;BME280;2247;42.666;23.292;2024-01-25T05:26:48;94716.25;;;10.71;47.15
4469;BME280;2247;42.666;23.292;2024-01-25T05:29:15;94703.59;;;10.73;47.29
4469;BME280;2247;42.666;23.292;2024-01-25T05:31:44;94689.63;;;10.62;47.49
4469;BME280;2247;42.666;23.292;2024-01-25T05:34:11;94717.81;;;10.72;47.22
4469;BME280;2247;42.666;23.292;2024-01-25T05:36:38;94710.19;;;10.76;47.57
4469;BME280;2247;42.666;23.292;2024-01-25T05:39:05;94722.06;;;10.83;46.70
4469;BME280;2247;42.666;23.292;2024-01-25T05:41:33;94709.41;;;10.85;46.87
4469;BME280;2247;42.666;23.292;2024-01-25T05:44:00;94710.19;;;10.76;46.95
4469;BME280;2247;42.666;23.292;2024-01-25T05:46:27;94721.25;;;10.78;46.70
4469;BME280;2247;42.666;23.292;2024-01-25T05:48:55;94727.84;;;10.75;47.03
4469;BME280;2247;42.666;23.292;2024-01-25T05:51:22;94725.19;;;10.75;47.16
4469;BME280;2247;42.666;23.292;2024-01-25T05:53:49;94732.84;;;10.72;47.24
4469;BME280;2247;42.666;23.292;2024-01-25T05:56:16;94741.78;;;10.60;47.33
4469;BME280;2247;42.666;23.292;2024-01-25T05:58:43;94753.13;;;10.66;47.86
4469;BME280;2247;42.666;23.292;2024-01-25T06:01:10;94737.31;;;10.66;47.45
4469;BME280;2247;42.666;23.292;2024-01-25T06:03:37;94727.56;;;10.61;48.01
4469;BME280;2247;42.666;23.292;2024-01-25T06:06:05;94738.63;;;10.48;48.20
4469;BME280;2247;42.666;23.292;2024-01-25T06:08:33;94750.75;;;10.49;48.22
4469;BME280;2247;42.666;23.292;2024-01-25T06:11:01;94753.38;;;10.54;48.24
4469;BME280;2247;42.666;23.292;2024-01-25T06:13:28;94751.28;;;10.56;48.34
4469;BME280;2247;42.666;23.292;2024-01-25T06:15:55;94756.56;;;10.61;48.14
4469;BME280;2247;42.666;23.292;2024-01-25T06:18:21;94765.00;;;10.69;48.06
4469;BME280;2247;42.666;23.292;2024-01-25T06:20:49;94763.94;;;10.75;48.28
4469;BME280;2247;42.666;23.292;2024-01-25T06:23:18;94747.88;;;10.76;47.77
4469;BME280;2247;42.666;23.292;2024-01-25T06:25:45;94757.63;;;10.81;47.57
4469;BME280;2247;42.666;23.292;2024-01-25T06:28:12;94763.16;;;10.74;47.93
4469;BME280;2247;42.666;23.292;2024-01-25T06:30:39;94757.63;;;10.76;48.04
4469;BME280;2247;42.666;23.292;2024-01-25T06:33:06;94754.19;;;10.70;48.62
4469;BME280;2247;42.666;23.292;2024-01-25T06:35:33;94766.59;;;10.70;48.42
4469;BME280;2247;42.666;23.292;2024-01-25T06:38:00;94762.88;;;10.65;48.42
4469;BME280;2247;42.666;23.292;2024-01-25T06:40:29;94775.03;;;10.72;48.18
4469;BME280;2247;42.666;23.292;2024-01-25T06:42:55;94775.53;;;10.74;48.46
4469;BME280;2247;42.666;23.292;2024-01-25T06:45:22;94752.59;;;10.74;47.86
4469;BME280;2247;42.666;23.292;2024-01-25T06:47:49;94774.75;;;10.88;48.24
4469;BME280;2247;42.666;23.292;2024-01-25T06:50:16;94778.19;;;10.94;48.15
4469;BME280;2247;42.666;23.292;2024-01-25T06:52:43;94772.66;;;10.85;47.58
4469;BME280;2247;42.666;23.292;2024-01-25T06:55:10;94765.53;;;10.96;47.74
4469;BME280;2247;42.666;23.292;2024-01-25T06:57:38;94779.28;;;10.98;47.98
4469;BME280;2247;42.666;23.292;2024-01-25T07:00:07;94791.41;;;10.99;47.77
4469;BME280;2247;42.666;23.292;2024-01-25T07:02:36;94794.03;;;11.04;47.77
4469;BME280;2247;42.666;23.292;2024-01-25T07:05:04;94793.78;;;11.11;47.46
4469;BME280;2247;42.666;23.292;2024-01-25T07:07:31;94783.22;;;11.11;47.35
4469;BME280;2247;42.666;23.292;2024-01-25T07:09:58;94800.09;;;11.15;47.08
4469;BME280;2247;42.666;23.292;2024-01-25T07:12:26;94781.63;;;11.15;47.46
4469;BME280;2247;42.666;23.292;2024-01-25T07:14:54;94763.69;;;11.17;46.82
4469;BME280;2247;42.666;23.292;2024-01-25T07:17:21;94747.09;;;11.16;46.93
4469;BME280;2247;42.666;23.292;2024-01-25T07:19:48;94742.06;;;11.25;46.81
4469;BME280;2247;42.666;23.292;2024-01-25T07:22:15;94717.28;;;11.11;46.34
4469;BME280;2247;42.666;23.292;2024-01-25T07:24:44;94755.28;;;11.20;46.36
4469;BME280;2247;42.666;23.292;2024-01-25T07:27:11;94741.53;;;11.07;46.54
4469;BME280;2247;42.666;23.292;2024-01-25T07:29:38;94757.91;;;11.04;46.73
4469;BME280;2247;42.666;23.292;2024-01-25T07:32:06;94756.06;;;11.05;47.12
4469;BME280;2247;42.666;23.292;2024-01-25T07:34:34;94752.34;;;11.01;47.09
4469;BME280;2247;42.666;23.292;2024-01-25T07:37:01;94764.50;;;10.97;46.68
4469;BME280;2247;42.666;23.292;2024-01-25T07:39:27;94754.47;;;10.99;47.07
4469;BME280;2247;42.666;23.292;2024-01-25T07:41:54;94732.31;;;10.75;46.62
4469;BME280;2247;42.666;23.292;2024-01-25T07:44:21;94755.78;;;11.01;47.02
4469;BME280;2247;42.666;23.292;2024-01-25T07:46:49;94772.94;;;11.04;46.83
4469;BME280;2247;42.666;23.292;2024-01-25T07:49:17;94766.34;;;11.12;46.49
4469;BME280;2247;42.666;23.292;2024-01-25T07:51:44;94778.75;;;11.11;46.34
4469;BME280;2247;42.666;23.292;2024-01-25T07:54:11;94772.41;;;11.12;46.29
4469;BME280;2247;42.666;23.292;2024-01-25T07:56:38;94788.75;;;11.19;46.25
4469;BME280;2247;42.666;23.292;2024-01-25T07:59:05;94790.06;;;11.22;46.08
4469;BME280;2247;42.666;23.292;2024-01-25T08:01:32;94782.94;;;11.27;45.87
4469;BME280;2247;42.666;23.292;2024-01-25T08:03:59;94790.31;;;11.35;45.94
4469;BME280;2247;42.666;23.292;2024-01-25T08:06:28;94790.59;;;11.44;45.81
4469;BME280;2247;42.666;23.292;2024-01-25T08:08:55;94782.41;;;11.45;44.87
4469;BME280;2247;42.666;23.292;2024-01-25T08:11:22;94777.66;;;11.48;45.15
4469;BME280;2247;42.666;23.292;2024-01-25T08:13:49;94776.59;;;11.49;44.66
4469;BME280;2247;42.666;23.292;2024-01-25T08:16:16;94772.13;;;11.44;44.89
4469;BME280;2247;42.666;23.292;2024-01-25T08:18:44;94773.44;;;11.52;44.52
4469;BME280;2247;42.666;23.292;2024-01-25T08:21:12;94785.31;;;11.54;44.56
4469;BME280;2247;42.666;23.292;2024-01-25T08:23:41;94783.97;;;11.57;44.27
4469;BME280;2247;42.666;23.292;2024-01-25T08:26:08;94771.03;;;11.50;44.52
4469;BME280;2247;42.666;23.292;2024-01-25T08:28:38;94767.09;;;11.53;44.45
4469;BME280;2247;42.666;23.292;2024-01-25T08:31:06;94746.00;;;11.27;43.97
4469;BME280;2247;42.666;23.292;2024-01-25T08:33:33;94755.50;;;11.43;44.50
4469;BME280;2247;42.666;23.292;2024-01-25T08:36:00;94758.13;;;11.49;44.29
4469;BME280;2247;42.666;23.292;2024-01-25T08:38:27;94776.06;;;11.52;44.15
4469;BME280;2247;42.666;23.292;2024-01-25T08:40:55;94773.66;;;11.55;44.10
4469;BME280;2247;42.666;23.292;2024-01-25T08:43:22;94770.50;;;11.58;43.68
4469;BME280;2247;42.666;23.292;2024-01-25T08:45:49;94733.34;;;11.29;43.82
4469;BME280;2247;42.666;23.292;2024-01-25T08:48:17;94780.81;;;11.50;44.29
4469;BME280;2247;42.666;23.292;2024-01-25T08:50:44;94782.94;;;11.48;44.43
4469;BME280;2247;42.666;23.292;2024-01-25T08:53:11;94740.75;;;11.17;44.31
4469;BME280;2247;42.666;23.292;2024-01-25T08:55:40;94786.66;;;11.31;44.21
4469;BME280;2247;42.666;23.292;2024-01-25T08:58:09;94775.81;;;11.23;45.06
4469;BME280;2247;42.666;23.292;2024-01-25T09:00:36;94793.75;;;11.31;44.76
4469;BME280;2247;42.666;23.292;2024-01-25T09:03:03;94782.41;;;11.30;45.39
4469;BME280;2247;42.666;23.292;2024-01-25T09:05:31;94786.63;;;11.41;44.83
4469;BME280;2247;42.666;23.292;2024-01-25T09:08:00;94778.19;;;11.39;44.90
4469;BME280;2247;42.666;23.292;2024-01-25T09:10:27;94796.38;;;11.51;44.34
4469;BME280;2247;42.666;23.292;2024-01-25T09:12:54;94799.81;;;11.57;44.30
4469;BME280;2247;42.666;23.292;2024-01-25T09:15:24;94756.56;;;11.37;44.61
4469;BME280;2247;42.666;23.292;2024-01-25T09:17:51;94788.19;;;11.68;44.11
4469;BME280;2247;42.666;23.292;2024-01-25T09:20:18;94801.13;;;11.79;44.08
4469;BME280;2247;42.666;23.292;2024-01-25T09:22:45;94798.19;;;11.91;43.76
4469;BME280;2247;42.666;23.292;2024-01-25T09:25:13;94799.75;;;12.02;43.65
4469;BME280;2247;42.666;23.292;2024-01-25T09:27:40;94789.44;;;12.06;43.03
4469;BME280;2247;42.666;23.292;2024-01-25T09:30:07;94763.56;;;11.98;43.20
4469;BME280;2247;42.666;23.292;2024-01-25T09:32:36;94769.06;;;12.11;42.88
4469;BME280;2247;42.666;23.292;2024-01-25T09:35:04;94780.66;;;12.20;43.18
4469;BME280;2247;42.666;23.292;2024-01-25T09:37:31;94781.69;;;12.24;42.57
4469;BME280;2247;42.666;23.292;2024-01-25T09:39:58;94749.28;;;12.04;42.60
4469;BME280;2247;42.666;23.292;2024-01-25T09:42:25;94774.28;;;12.27;42.62
4469;BME280;2247;42.666;23.292;2024-01-25T09:44:54;94765.81;;;12.30;43.12
4469;BME280;2247;42.666;23.292;2024-01-25T09:47:21;94764.22;;;12.34;42.86
4469;BME280;2247;42.666;23.292;2024-01-25T09:49:50;94753.09;;;12.37;42.62
4469;BME280;2247;42.666;23.292;2024-01-25T09:52:19;94749.91;;;12.40;43.30
4469;BME280;2247;42.666;23.292;2024-01-25T09:54:53;94732.75;;;12.32;42.94
4469;BME280;2247;42.666;23.292;2024-01-25T09:57:23;94740.94;;;12.36;42.91
4469;BME280;2247;42.666;23.292;2024-01-25T09:59:52;94736.75;;;12.30;42.93
4469;BME280;2247;42.666;23.292;2024-01-25T10:02:20;94736.28;;;12.22;43.43
4469;BME280;2247;42.666;23.292;2024-01-25T10:04:50;94744.19;;;12.22;43.44
4469;BME280;2247;42.666;23.292;2024-01-25T10:09:59;94730.72;;;12.19;43.57
4469;BME280;2247;42.666;23.292;2024-01-25T10:12:26;94723.59;;;12.19;43.17
4469;BME280;2247;42.666;23.292;2024-01-25T10:14:53;94719.88;;;12.20;43.06
4469;BME280;2247;42.666;23.292;2024-01-25T10:17:20;94722.50;;;12.31;43.07
4469;BME280;2247;42.666;23.292;2024-01-25T10:19:47;94713.97;;;12.39;43.51
4469;BME280;2247;42.666;23.292;2024-01-25T10:22:15;94722.19;;;12.37;43.55
4469;BME280;2247;42.666;23.292;2024-01-25T10:24:42;94724.53;;;12.39;43.55
4469;BME280;2247;42.666;23.292;2024-01-25T10:27:10;94720.34;;;12.33;43.36
4469;BME280;2247;42.666;23.292;2024-01-25T10:29:37;94722.38;;;12.51;43.14
4469;BME280;2247;42.666;23.292;2024-01-25T10:32:06;94698.91;;;12.39;43.35
4469;BME280;2247;42.666;23.292;2024-01-25T10:34:35;94715.94;;;12.62;43.74
4469;BME280;2247;42.666;23.292;2024-01-25T10:37:04;94704.00;;;12.70;43.08
4469;BME280;2247;42.666;23.292;2024-01-25T10:39:33;94705.59;;;12.66;43.27
4469;BME280;2247;42.666;23.292;2024-01-25T10:42:01;94708.97;;;12.76;43.54
4469;BME280;2247;42.666;23.292;2024-01-25T10:44:28;94711.88;;;12.75;42.93
4469;BME280;2247;42.666;23.292;2024-01-25T10:46:55;94703.69;;;12.76;43.37
4469;BME280;2247;42.666;23.292;2024-01-25T10:49:23;94693.63;;;12.78;43.05
4469;BME280;2247;42.666;23.292;2024-01-25T10:51:52;94690.13;;;12.83;43.36
4469;BME280;2247;42.666;23.292;2024-01-25T10:54:19;94682.25;;;12.78;42.74
4469;BME280;2247;42.666;23.292;2024-01-25T10:56:48;94682.75;;;12.80;42.59
4469;BME280;2247;42.666;23.292;2024-01-25T10:59:16;94689.34;;;12.82;42.60
4469;BME280;2247;42.666;23.292;2024-01-25T11:01:44;94677.47;;;12.80;41.90
4469;BME280;2247;42.666;23.292;2024-01-25T11:04:12;94681.19;;;12.79;41.53
4469;BME280;2247;42.666;23.292;2024-01-25T11:06:39;94674.06;;;12.74;41.58
4469;BME280;2247;42.666;23.292;2024-01-25T11:09:07;94668.56;;;12.71;41.43
4469;BME280;2247;42.666;23.292;2024-01-25T11:11:35;94655.06;;;12.72;41.10
4469;BME280;2247;42.666;23.292;2024-01-25T11:14:04;94648.78;;;12.63;41.60
4469;BME280;2247;42.666;23.292;2024-01-25T11:16:38;94637.16;;;12.59;41.69
4469;BME280;2247;42.666;23.292;2024-01-25T11:19:07;94633.47;;;12.60;41.21
4469;BME280;2247;42.666;23.292;2024-01-25T11:21:39;94637.38;;;12.68;41.10
4469;BME280;2247;42.666;23.292;2024-01-25T11:24:12;94629.22;;;12.64;41.10
4469;BME280;2247;42.666;23.292;2024-01-25T11:26:39;94628.19;;;12.60;41.58
4469;BME280;2247;42.666;23.292;2024-01-25T11:29:07;94628.44;;;12.58;41.07
4469;BME280;2247;42.666;23.292;2024-01-25T11:31:35;94633.84;;;12.48;41.49
4469;BME280;2247;42.666;23.292;2024-01-25T11:34:01;94635.94;;;12.46;41.87
4469;BME280;2247;42.666;23.292;2024-01-25T11:36:29;94618.88;;;12.34;42.34
4469;BME280;2247;42.666;23.292;2024-01-25T11:38:56;94624.06;;;12.49;41.56
4469;BME280;2247;42.666;23.292;2024-01-25T11:41:24;94631.19;;;12.48;41.73
4469;BME280;2247;42.666;23.292;2024-01-25T11:43:52;94625.16;;;12.43;41.48
4469;BME280;2247;42.666;23.292;2024-01-25T11:46:21;94559.09;;;12.09;41.71
4469;BME280;2247;42.666;23.292;2024-01-25T11:48:48;94634.47;;;12.35;41.90
4469;BME280;2247;42.666;23.292;2024-01-25T11:51:15;94635.56;;;12.29;41.83
4469;BME280;2247;42.666;23.292;2024-01-25T11:53:42;94622.88;;;12.26;42.00
4469;BME280;2247;42.666;23.292;2024-01-25T11:56:12;94619.13;;;12.32;42.10
4469;BME280;2247;42.666;23.292;2024-01-25T11:58:43;94622.63;;;12.28;42.07
4469;BME280;2247;42.666;23.292;2024-01-25T12:01:10;94628.91;;;12.32;41.59
4469;BME280;2247;42.666;23.292;2024-01-25T12:03:40;94593.69;;;12.07;41.38
4469;BME280;2247;42.666;23.292;2024-01-25T12:06:07;94638.44;;;12.33;41.51
4469;BME280;2247;42.666;23.292;2024-01-25T12:08:35;94640.53;;;12.36;41.36
4469;BME280;2247;42.666;23.292;2024-01-25T12:11:05;94643.13;;;12.41;41.49
4469;BME280;2247;42.666;23.292;2024-01-25T12:13:39;94640.75;;;12.39;41.62
4469;BME280;2247;42.666;23.292;2024-01-25T12:16:07;94579.50;;;11.98;41.82
4469;BME280;2247;42.666;23.292;2024-01-25T12:18:34;94616.00;;;12.30;41.69
4469;BME280;2247;42.666;23.292;2024-01-25T12:21:05;94601.53;;;12.22;41.68
4469;BME280;2247;42.666;23.292;2024-01-25T12:23:32;94603.09;;;12.23;41.54
4469;BME280;2247;42.666;23.292;2024-01-25T12:26:00;94604.19;;;12.17;41.49
4469;BME280;2247;42.666;23.292;2024-01-25T12:28:29;94595.47;;;12.17;42.14
4469;BME280;2247;42.666;23.292;2024-01-25T12:30:57;94610.25;;;12.23;41.87
4469;BME280;2247;42.666;23.292;2024-01-25T12:33:25;94607.31;;;12.24;41.59
4469;BME280;2247;42.666;23.292;2024-01-25T12:35:52;94608.63;;;12.27;41.56
4469;BME280;2247;42.666;23.292;2024-01-25T12:38:20;94585.81;;;12.02;41.62
4469;BME280;2247;42.666;23.292;2024-01-25T12:40:48;94598.78;;;12.33;41.29
4469;BME280;2247;42.666;23.292;2024-01-25T12:43:16;94554.56;;;12.14;41.60
4469;BME280;2247;42.666;23.292;2024-01-25T12:45:43;94575.44;;;12.45;41.38
4469;BME280;2247;42.666;23.292;2024-01-25T12:48:11;94540.16;;;12.31;41.11
4469;BME280;2247;42.666;23.292;2024-01-25T12:50:38;94517.78;;;12.23;41.38
4469;BME280;2247;42.666;23.292;2024-01-25T12:53:05;94553.47;;;12.49;40.50
4469;BME280;2247;42.666;23.292;2024-01-25T12:55:34;94553.28;;;12.41;40.69
4469;BME280;2247;42.666;23.292;2024-01-25T12:58:02;94532.41;;;12.39;41.03
4469;BME280;2247;42.666;23.292;2024-01-25T13:00:29;94551.94;;;12.43;40.68
4469;BME280;2247;42.666;23.292;2024-01-25T13:02:56;94542.66;;;12.46;41.02
4469;BME280;2247;42.666;23.292;2024-01-25T13:05:23;94553.56;;;12.39;40.74
4469;BME280;2247;42.666;23.292;2024-01-25T13:07:50;94539.06;;;12.37;40.80
4469;BME280;2247;42.666;23.292;2024-01-25T13:10:17;94553.81;;;12.38;40.30
4469;BME280;2247;42.666;23.292;2024-01-25T13:12:46;94535.84;;;12.40;40.77
4469;BME280;2247;42.666;23.292;2024-01-25T13:15:13;94534.84;;;12.36;40.42
4469;BME280;2247;42.666;23.292;2024-01-25T13:17:40;94538.28;;;12.31;40.62